sensor_id;sensor_type;location;lat;lon;timestamp;P1;durP1;ratioP1;P2;durP2;ratioP2
11447;SDS011;43755;49.736;8.734;2023-09-18T00:01:42;3.80;;;2.10;;
11447;SDS011;43755;49.736;8.734;2023-09-18T00:03:44;5.17;;;2.30;;
11447;SDS011;43755;49.736;8.734;2023-09-18T00:05:46;4.37;;;2.30;;
11447;SDS011;43755;49.736;8.734;2023-09-18T00:07:48;2.50;;;2.30;;
11447;SDS011;43755;49.736;8.734;2023-09-18T00:09:50;2.30;;;2.10;;
11447;SDS011;43755;49.736;8.734;2023-09-18T00:11:51;2.90;;;2.37;;
11447;SDS011;43755;49.736;8.734;2023-09-18T00:13:53;3.73;;;2.23;;
11447;SDS011;43755;49.736;8.734;2023-09-18T00:15:54;2.40;;;2.23;;
11447;SDS011;43755;49.736;8.734;2023-09-18T00:18:00;3.80;;;2.40;;
11447;SDS011;43755;49.736;8.734;2023-09-18T00:20:02;2.67;;;2.13;;
11447;SDS011;43755;49.736;8.734;2023-09-18T00:22:26;5.53;;;2.10;;
11447;SDS011;43755;49.736;8.734;2023-09-18T00:24:28;4.30;;;2.37;;
11447;SDS011;43755;49.736;8.734;2023-09-18T00:26:29;3.07;;;2.20;;
11447;SDS011;43755;49.736;8.734;2023-09-18T00:28:31;3.30;;;2.10;;
11447;SDS011;43755;49.736;8.734;2023-09-18T00:30:32;2.33;;;2.23;;
11447;SDS011;43755;49.736;8.734;2023-09-18T00:32:34;2.93;;;2.03;;
11447;SDS011;43755;49.736;8.734;2023-09-18T00:34:37;3.10;;;2.13;;
11447;SDS011;43755;49.736;8.734;2023-09-18T00:36:38;2.30;;;2.10;;
11447;SDS011;43755;49.736;8.734;2023-09-18T00:38:40;2.13;;;1.93;;
11447;SDS011;43755;49.736;8.734;2023-09-18T00:40:41;2.33;;;2.00;;
11447;SDS011;43755;49.736;8.734;2023-09-18T00:42:43;3.43;;;2.20;;
11447;SDS011;43755;49.736;8.734;2023-09-18T00:44:45;3.47;;;2.07;;
11447;SDS011;43755;49.736;8.734;2023-09-18T00:46:46;4.10;;;2.30;;
11447;SDS011;43755;49.736;8.734;2023-09-18T00:48:48;4.77;;;2.20;;
11447;SDS011;43755;49.736;8.734;2023-09-18T00:50:52;2.40;;;2.20;;
11447;SDS011;43755;49.736;8.734;2023-09-18T00:53:15;2.40;;;2.20;;
11447;SDS011;43755;49.736;8.734;2023-09-18T00:55:23;2.10;;;1.90;;
11447;SDS011;43755;49.736;8.734;2023-09-18T00:57:25;5.70;;;2.33;;
11447;SDS011;43755;49.736;8.734;2023-09-18T00:59:26;2.83;;;2.17;;
11447;SDS011;43755;49.736;8.734;2023-09-18T01:01:28;3.87;;;2.23;;
11447;SDS011;43755;49.736;8.734;2023-09-18T01:03:30;3.20;;;2.13;;
11447;SDS011;43755;49.736;8.734;2023-09-18T01:05:31;3.37;;;2.20;;
11447;SDS011;43755;49.736;8.734;2023-09-18T01:07:35;3.37;;;2.40;;
11447;SDS011;43755;49.736;8.734;2023-09-18T01:09:37;6.33;;;2.47;;
11447;SDS011;43755;49.736;8.734;2023-09-18T01:11:42;3.40;;;2.00;;
11447;SDS011;43755;49.736;8.734;2023-09-18T01:13:49;3.20;;;2.30;;
11447;SDS011;43755;49.736;8.734;2023-09-18T01:15:57;2.90;;;2.20;;
11447;SDS011;43755;49.736;8.734;2023-09-18T01:18:03;2.20;;;2.10;;
11447;SDS011;43755;49.736;8.734;2023-09-18T01:20:08;3.87;;;2.00;;
11447;SDS011;43755;49.736;8.734;2023-09-18T01:22:11;2.33;;;2.13;;
11447;SDS011;43755;49.736;8.734;2023-09-18T01:24:15;4.37;;;2.33;;
11447;SDS011;43755;49.736;8.734;2023-09-18T01:26:15;3.27;;;2.47;;
11447;SDS011;43755;49.736;8.734;2023-09-18T01:28:17;3.03;;;2.13;;
11447;SDS011;43755;49.736;8.734;2023-09-18T01:30:17;2.97;;;2.20;;
11447;SDS011;43755;49.736;8.734;2023-09-18T01:32:19;2.63;;;2.40;;
11447;SDS011;43755;49.736;8.734;2023-09-18T01:34:25;4.80;;;2.20;;
11447;SDS011;43755;49.736;8.734;2023-09-18T01:36:28;2.53;;;2.20;;
11447;SDS011;43755;49.736;8.734;2023-09-18T01:38:30;3.43;;;2.43;;
11447;SDS011;43755;49.736;8.734;2023-09-18T01:40:33;2.27;;;2.07;;
11447;SDS011;43755;49.736;8.734;2023-09-18T01:42:35;2.93;;;2.43;;
11447;SDS011;43755;49.736;8.734;2023-09-18T01:44:37;2.80;;;2.60;;
11447;SDS011;43755;49.736;8.734;2023-09-18T01:46:38;2.40;;;2.20;;
11447;SDS011;43755;49.736;8.734;2023-09-18T01:48:45;2.50;;;2.30;;
11447;SDS011;43755;49.736;8.734;2023-09-18T01:50:47;3.67;;;2.47;;
11447;SDS011;43755;49.736;8.734;2023-09-18T01:52:48;15.60;;;4.40;;
11447;SDS011;43755;49.736;8.734;2023-09-18T01:54:50;9.20;;;3.77;;
11447;SDS011;43755;49.736;8.734;2023-09-18T01:56:53;8.00;;;3.43;;
11447;SDS011;43755;49.736;8.734;2023-09-18T01:58:54;11.73;;;3.63;;
11447;SDS011;43755;49.736;8.734;2023-09-18T02:00:56;8.27;;;3.20;;
11447;SDS011;43755;49.736;8.734;2023-09-18T02:03:01;5.97;;;3.20;;
11447;SDS011;43755;49.736;8.734;2023-09-18T02:05:04;11.57;;;3.50;;
11447;SDS011;43755;49.736;8.734;2023-09-18T02:07:06;5.57;;;3.23;;
11447;SDS011;43755;49.736;8.734;2023-09-18T02:09:07;9.60;;;3.67;;
11447;SDS011;43755;49.736;8.734;2023-09-18T02:11:08;6.40;;;3.30;;
11447;SDS011;43755;49.736;8.734;2023-09-18T02:13:11;5.97;;;3.17;;
11447;SDS011;43755;49.736;8.734;2023-09-18T02:15:12;6.03;;;3.07;;
11447;SDS011;43755;49.736;8.734;2023-09-18T02:17:16;4.53;;;2.90;;
11447;SDS011;43755;49.736;8.734;2023-09-18T02:19:20;4.27;;;3.10;;
11447;SDS011;43755;49.736;8.734;2023-09-18T02:21:23;3.47;;;3.10;;
11447;SDS011;43755;49.736;8.734;2023-09-18T02:23:23;4.50;;;3.00;;
11447;SDS011;43755;49.736;8.734;2023-09-18T02:25:25;5.70;;;3.20;;
11447;SDS011;43755;49.736;8.734;2023-09-18T02:27:27;5.07;;;3.20;;
11447;SDS011;43755;49.736;8.734;2023-09-18T02:29:30;4.73;;;3.50;;
11447;SDS011;43755;49.736;8.734;2023-09-18T02:31:31;5.03;;;3.60;;
11447;SDS011;43755;49.736;8.734;2023-09-18T02:33:32;4.60;;;3.80;;
11447;SDS011;43755;49.736;8.734;2023-09-18T02:35:33;4.43;;;3.73;;
11447;SDS011;43755;49.736;8.734;2023-09-18T02:37:35;5.87;;;3.87;;
11447;SDS011;43755;49.736;8.734;2023-09-18T02:39:36;4.83;;;3.80;;
11447;SDS011;43755;49.736;8.734;2023-09-18T02:41:38;7.03;;;4.20;;
11447;SDS011;43755;49.736;8.734;2023-09-18T02:43:39;4.47;;;3.93;;
11447;SDS011;43755;49.736;8.734;2023-09-18T02:45:41;4.50;;;3.80;;
11447;SDS011;43755;49.736;8.734;2023-09-18T02:47:43;5.10;;;3.80;;
11447;SDS011;43755;49.736;8.734;2023-09-18T02:49:44;5.43;;;3.83;;
11447;SDS011;43755;49.736;8.734;2023-09-18T02:51:46;4.27;;;3.80;;
11447;SDS011;43755;49.736;8.734;2023-09-18T02:53:47;5.43;;;3.37;;
11447;SDS011;43755;49.736;8.734;2023-09-18T02:55:49;6.33;;;4.03;;
11447;SDS011;43755;49.736;8.734;2023-09-18T02:57:51;6.93;;;3.40;;
11447;SDS011;43755;49.736;8.734;2023-09-18T02:59:53;4.70;;;3.10;;
11447;SDS011;43755;49.736;8.734;2023-09-18T03:01:56;6.63;;;3.47;;
11447;SDS011;43755;49.736;8.734;2023-09-18T03:03:56;10.80;;;3.77;;
11447;SDS011;43755;49.736;8.734;2023-09-18T03:06:01;8.83;;;3.50;;
11447;SDS011;43755;49.736;8.734;2023-09-18T03:08:03;9.93;;;3.30;;
11447;SDS011;43755;49.736;8.734;2023-09-18T03:10:06;5.20;;;3.37;;
11447;SDS011;43755;49.736;8.734;2023-09-18T03:12:08;8.43;;;3.47;;
11447;SDS011;43755;49.736;8.734;2023-09-18T03:14:09;5.40;;;3.07;;
11447;SDS011;43755;49.736;8.734;2023-09-18T03:16:11;8.03;;;3.77;;
11447;SDS011;43755;49.736;8.734;2023-09-18T03:18:13;7.30;;;3.20;;
11447;SDS011;43755;49.736;8.734;2023-09-18T03:20:15;9.67;;;3.50;;
11447;SDS011;43755;49.736;8.734;2023-09-18T03:22:16;9.70;;;3.50;;
11447;SDS011;43755;49.736;8.734;2023-09-18T03:24:18;7.63;;;3.30;;
11447;SDS011;43755;49.736;8.734;2023-09-18T03:26:19;8.23;;;3.50;;
11447;SDS011;43755;49.736;8.734;2023-09-18T03:28:21;9.33;;;3.33;;
11447;SDS011;43755;49.736;8.734;2023-09-18T03:30:23;6.07;;;3.43;;
11447;SDS011;43755;49.736;8.734;2023-09-18T03:32:24;6.60;;;3.30;;
11447;SDS011;43755;49.736;8.734;2023-09-18T03:34:27;6.53;;;3.40;;
11447;SDS011;43755;49.736;8.734;2023-09-18T03:36:29;6.40;;;3.50;;
11447;SDS011;43755;49.736;8.734;2023-09-18T03:38:30;6.37;;;3.20;;
11447;SDS011;43755;49.736;8.734;2023-09-18T03:40:32;5.87;;;3.30;;
11447;SDS011;43755;49.736;8.734;2023-09-18T03:42:34;6.93;;;3.60;;
11447;SDS011;43755;49.736;8.734;2023-09-18T03:44:35;4.77;;;3.03;;
11447;SDS011;43755;49.736;8.734;2023-09-18T03:46:37;7.23;;;3.27;;
11447;SDS011;43755;49.736;8.734;2023-09-18T03:48:38;7.43;;;3.50;;
11447;SDS011;43755;49.736;8.734;2023-09-18T03:50:40;5.33;;;3.13;;
11447;SDS011;43755;49.736;8.734;2023-09-18T03:52:42;4.03;;;3.13;;
11447;SDS011;43755;49.736;8.734;2023-09-18T03:54:43;4.73;;;3.20;;
11447;SDS011;43755;49.736;8.734;2023-09-18T03:56:45;7.73;;;2.97;;
11447;SDS011;43755;49.736;8.734;2023-09-18T03:58:47;5.13;;;2.77;;
11447;SDS011;43755;49.736;8.734;2023-09-18T04:00:49;6.83;;;3.60;;
11447;SDS011;43755;49.736;8.734;2023-09-18T04:02:51;6.17;;;3.33;;
11447;SDS011;43755;49.736;8.734;2023-09-18T04:04:53;8.17;;;3.23;;
11447;SDS011;43755;49.736;8.734;2023-09-18T04:06:56;5.63;;;3.00;;
11447;SDS011;43755;49.736;8.734;2023-09-18T04:09:11;8.27;;;3.27;;
11447;SDS011;43755;49.736;8.734;2023-09-18T04:11:15;9.50;;;3.00;;
11447;SDS011;43755;49.736;8.734;2023-09-18T04:13:16;8.07;;;3.13;;
11447;SDS011;43755;49.736;8.734;2023-09-18T04:15:18;9.00;;;2.77;;
11447;SDS011;43755;49.736;8.734;2023-09-18T04:17:20;7.93;;;2.53;;
11447;SDS011;43755;49.736;8.734;2023-09-18T04:19:22;11.50;;;3.17;;
11447;SDS011;43755;49.736;8.734;2023-09-18T04:21:23;5.27;;;2.90;;
11447;SDS011;43755;49.736;8.734;2023-09-18T04:23:26;9.30;;;3.13;;
11447;SDS011;43755;49.736;8.734;2023-09-18T04:25:43;7.87;;;3.20;;
11447;SDS011;43755;49.736;8.734;2023-09-18T04:27:45;6.73;;;3.20;;
11447;SDS011;43755;49.736;8.734;2023-09-18T04:29:50;9.90;;;3.10;;
11447;SDS011;43755;49.736;8.734;2023-09-18T04:31:51;7.33;;;3.00;;
11447;SDS011;43755;49.736;8.734;2023-09-18T04:33:54;9.13;;;3.00;;
11447;SDS011;43755;49.736;8.734;2023-09-18T04:35:55;7.00;;;2.70;;
11447;SDS011;43755;49.736;8.734;2023-09-18T04:37:58;8.70;;;3.00;;
11447;SDS011;43755;49.736;8.734;2023-09-18T04:40:01;8.77;;;3.00;;
11447;SDS011;43755;49.736;8.734;2023-09-18T04:42:04;9.47;;;3.10;;
11447;SDS011;43755;49.736;8.734;2023-09-18T04:44:06;10.70;;;2.87;;
11447;SDS011;43755;49.736;8.734;2023-09-18T04:46:07;13.43;;;3.20;;
11447;SDS011;43755;49.736;8.734;2023-09-18T04:48:08;8.87;;;2.90;;
11447;SDS011;43755;49.736;8.734;2023-09-18T04:50:09;8.07;;;3.30;;
11447;SDS011;43755;49.736;8.734;2023-09-18T04:52:13;10.03;;;3.40;;
11447;SDS011;43755;49.736;8.734;2023-09-18T04:54:14;9.17;;;3.17;;
11447;SDS011;43755;49.736;8.734;2023-09-18T04:56:17;10.07;;;2.97;;
11447;SDS011;43755;49.736;8.734;2023-09-18T04:58:20;8.63;;;2.97;;
11447;SDS011;43755;49.736;8.734;2023-09-18T05:00:22;9.90;;;3.63;;
11447;SDS011;43755;49.736;8.734;2023-09-18T05:02:37;8.00;;;3.07;;
11447;SDS011;43755;49.736;8.734;2023-09-18T05:04:39;7.90;;;3.73;;
11447;SDS011;43755;49.736;8.734;2023-09-18T05:06:41;6.97;;;3.50;;
11447;SDS011;43755;49.736;8.734;2023-09-18T05:08:43;9.53;;;3.60;;
11447;SDS011;43755;49.736;8.734;2023-09-18T05:10:44;8.20;;;3.40;;
11447;SDS011;43755;49.736;8.734;2023-09-18T05:13:07;8.90;;;3.30;;
11447;SDS011;43755;49.736;8.734;2023-09-18T05:15:09;7.70;;;3.33;;
11447;SDS011;43755;49.736;8.734;2023-09-18T05:17:13;12.40;;;4.20;;
11447;SDS011;43755;49.736;8.734;2023-09-18T05:19:16;10.97;;;3.57;;
11447;SDS011;43755;49.736;8.734;2023-09-18T05:21:18;12.73;;;4.20;;
11447;SDS011;43755;49.736;8.734;2023-09-18T05:23:24;8.73;;;3.40;;
11447;SDS011;43755;49.736;8.734;2023-09-18T05:25:26;7.23;;;3.10;;
11447;SDS011;43755;49.736;8.734;2023-09-18T05:27:51;7.20;;;2.90;;
11447;SDS011;43755;49.736;8.734;2023-09-18T05:29:57;4.97;;;3.00;;
11447;SDS011;43755;49.736;8.734;2023-09-18T05:31:58;9.17;;;2.67;;
11447;SDS011;43755;49.736;8.734;2023-09-18T05:33:59;7.97;;;2.80;;
11447;SDS011;43755;49.736;8.734;2023-09-18T05:36:01;6.03;;;3.33;;
11447;SDS011;43755;49.736;8.734;2023-09-18T05:38:03;9.20;;;2.70;;
11447;SDS011;43755;49.736;8.734;2023-09-18T05:40:05;8.48;;;2.60;;
11447;SDS011;43755;49.736;8.734;2023-09-18T05:42:28;10.53;;;2.90;;
11447;SDS011;43755;49.736;8.734;2023-09-18T05:44:31;9.27;;;2.97;;
11447;SDS011;43755;49.736;8.734;2023-09-18T05:46:35;7.40;;;2.77;;
11447;SDS011;43755;49.736;8.734;2023-09-18T05:48:36;5.57;;;2.20;;
11447;SDS011;43755;49.736;8.734;2023-09-18T05:50:38;4.43;;;2.33;;
11447;SDS011;43755;49.736;8.734;2023-09-18T05:52:41;5.50;;;2.60;;
11447;SDS011;43755;49.736;8.734;2023-09-18T05:54:43;7.97;;;2.60;;
11447;SDS011;43755;49.736;8.734;2023-09-18T05:56:44;8.13;;;2.60;;
11447;SDS011;43755;49.736;8.734;2023-09-18T05:58:46;6.97;;;2.60;;
11447;SDS011;43755;49.736;8.734;2023-09-18T06:00:48;7.93;;;2.87;;
11447;SDS011;43755;49.736;8.734;2023-09-18T06:02:51;6.47;;;2.87;;
11447;SDS011;43755;49.736;8.734;2023-09-18T06:04:54;5.27;;;2.70;;
11447;SDS011;43755;49.736;8.734;2023-09-18T06:07:19;5.63;;;2.87;;
11447;SDS011;43755;49.736;8.734;2023-09-18T06:09:23;5.07;;;2.50;;
11447;SDS011;43755;49.736;8.734;2023-09-18T06:11:24;9.67;;;3.27;;
11447;SDS011;43755;49.736;8.734;2023-09-18T06:13:25;5.03;;;3.00;;
11447;SDS011;43755;49.736;8.734;2023-09-18T06:15:28;8.17;;;3.10;;
11447;SDS011;43755;49.736;8.734;2023-09-18T06:17:29;10.95;;;2.95;;
11447;SDS011;43755;49.736;8.734;2023-09-18T06:19:32;7.57;;;3.03;;
11447;SDS011;43755;49.736;8.734;2023-09-18T06:21:35;8.07;;;2.83;;
11447;SDS011;43755;49.736;8.734;2023-09-18T06:23:36;5.07;;;2.73;;
11447;SDS011;43755;49.736;8.734;2023-09-18T06:25:38;6.27;;;2.80;;
11447;SDS011;43755;49.736;8.734;2023-09-18T06:27:40;8.97;;;3.10;;
11447;SDS011;43755;49.736;8.734;2023-09-18T06:29:40;6.53;;;2.93;;
11447;SDS011;43755;49.736;8.734;2023-09-18T06:31:43;6.70;;;2.60;;
11447;SDS011;43755;49.736;8.734;2023-09-18T06:33:44;6.80;;;2.53;;
11447;SDS011;43755;49.736;8.734;2023-09-18T06:35:47;8.47;;;2.30;;
11447;SDS011;43755;49.736;8.734;2023-09-18T06:37:48;5.13;;;2.10;;
11447;SDS011;43755;49.736;8.734;2023-09-18T06:39:50;6.37;;;2.13;;
11447;SDS011;43755;49.736;8.734;2023-09-18T06:41:51;3.70;;;1.80;;
11447;SDS011;43755;49.736;8.734;2023-09-18T06:43:53;6.47;;;2.20;;
11447;SDS011;43755;49.736;8.734;2023-09-18T06:45:55;5.00;;;1.97;;
11447;SDS011;43755;49.736;8.734;2023-09-18T06:47:57;4.40;;;2.20;;
11447;SDS011;43755;49.736;8.734;2023-09-18T06:50:13;6.73;;;2.10;;
11447;SDS011;43755;49.736;8.734;2023-09-18T06:52:15;5.87;;;2.30;;
11447;SDS011;43755;49.736;8.734;2023-09-18T06:54:17;5.03;;;2.20;;
11447;SDS011;43755;49.736;8.734;2023-09-18T06:56:18;4.10;;;2.17;;
11447;SDS011;43755;49.736;8.734;2023-09-18T06:58:20;5.57;;;2.10;;
11447;SDS011;43755;49.736;8.734;2023-09-18T07:00:21;4.80;;;2.30;;
11447;SDS011;43755;49.736;8.734;2023-09-18T07:02:23;8.43;;;2.57;;
11447;SDS011;43755;49.736;8.734;2023-09-18T07:04:25;5.27;;;2.27;;
11447;SDS011;43755;49.736;8.734;2023-09-18T07:06:27;5.73;;;3.00;;
11447;SDS011;43755;49.736;8.734;2023-09-18T07:08:30;7.17;;;2.87;;
11447;SDS011;43755;49.736;8.734;2023-09-18T07:10:32;9.53;;;2.73;;
11447;SDS011;43755;49.736;8.734;2023-09-18T07:12:34;5.97;;;2.40;;
11447;SDS011;43755;49.736;8.734;2023-09-18T07:14:36;8.97;;;2.50;;
11447;SDS011;43755;49.736;8.734;2023-09-18T07:16:38;9.23;;;2.70;;
11447;SDS011;43755;49.736;8.734;2023-09-18T07:18:40;6.70;;;2.70;;
11447;SDS011;43755;49.736;8.734;2023-09-18T07:20:43;8.03;;;3.17;;
11447;SDS011;43755;49.736;8.734;2023-09-18T07:22:45;7.70;;;2.60;;
11447;SDS011;43755;49.736;8.734;2023-09-18T07:24:49;7.97;;;2.80;;
11447;SDS011;43755;49.736;8.734;2023-09-18T07:26:50;7.27;;;2.80;;
11447;SDS011;43755;49.736;8.734;2023-09-18T07:28:52;8.87;;;3.07;;
11447;SDS011;43755;49.736;8.734;2023-09-18T07:30:53;6.10;;;2.93;;
11447;SDS011;43755;49.736;8.734;2023-09-18T07:32:55;4.00;;;2.40;;
11447;SDS011;43755;49.736;8.734;2023-09-18T07:34:58;7.13;;;2.77;;
11447;SDS011;43755;49.736;8.734;2023-09-18T07:36:59;8.23;;;2.60;;
11447;SDS011;43755;49.736;8.734;2023-09-18T07:39:01;5.53;;;2.60;;
11447;SDS011;43755;49.736;8.734;2023-09-18T07:41:05;6.73;;;2.80;;
11447;SDS011;43755;49.736;8.734;2023-09-18T07:43:07;5.73;;;2.43;;
11447;SDS011;43755;49.736;8.734;2023-09-18T07:45:08;9.67;;;2.70;;
11447;SDS011;43755;49.736;8.734;2023-09-18T07:47:10;5.23;;;2.33;;
11447;SDS011;43755;49.736;8.734;2023-09-18T07:49:10;5.83;;;2.57;;
11447;SDS011;43755;49.736;8.734;2023-09-18T07:51:12;4.93;;;2.47;;
11447;SDS011;43755;49.736;8.734;2023-09-18T07:53:16;5.37;;;2.43;;
11447;SDS011;43755;49.736;8.734;2023-09-18T07:55:17;6.13;;;2.50;;
11447;SDS011;43755;49.736;8.734;2023-09-18T07:57:20;5.00;;;2.37;;
11447;SDS011;43755;49.736;8.734;2023-09-18T07:59:23;5.60;;;2.20;;
11447;SDS011;43755;49.736;8.734;2023-09-18T08:01:25;4.80;;;2.30;;
11447;SDS011;43755;49.736;8.734;2023-09-18T08:03:26;4.00;;;2.00;;
11447;SDS011;43755;49.736;8.734;2023-09-18T08:05:29;4.87;;;2.17;;
11447;SDS011;43755;49.736;8.734;2023-09-18T08:07:32;5.80;;;2.37;;
11447;SDS011;43755;49.736;8.734;2023-09-18T08:09:35;5.23;;;2.07;;
11447;SDS011;43755;49.736;8.734;2023-09-18T08:11:37;3.33;;;2.07;;
11447;SDS011;43755;49.736;8.734;2023-09-18T08:13:43;6.53;;;2.37;;
11447;SDS011;43755;49.736;8.734;2023-09-18T08:15:44;5.57;;;2.17;;
11447;SDS011;43755;49.736;8.734;2023-09-18T08:17:46;6.63;;;2.10;;
11447;SDS011;43755;49.736;8.734;2023-09-18T08:19:50;5.43;;;1.90;;
11447;SDS011;43755;49.736;8.734;2023-09-18T08:21:52;7.03;;;2.23;;
11447;SDS011;43755;49.736;8.734;2023-09-18T08:23:54;6.03;;;2.10;;
11447;SDS011;43755;49.736;8.734;2023-09-18T08:25:55;5.97;;;2.10;;
11447;SDS011;43755;49.736;8.734;2023-09-18T08:27:58;5.60;;;2.10;;
11447;SDS011;43755;49.736;8.734;2023-09-18T08:30:02;3.33;;;2.07;;
11447;SDS011;43755;49.736;8.734;2023-09-18T08:32:03;3.57;;;1.60;;
11447;SDS011;43755;49.736;8.734;2023-09-18T08:34:04;5.13;;;1.70;;
11447;SDS011;43755;49.736;8.734;2023-09-18T08:36:05;4.90;;;1.83;;
11447;SDS011;43755;49.736;8.734;2023-09-18T08:38:07;2.47;;;1.97;;
11447;SDS011;43755;49.736;8.734;2023-09-18T08:40:09;3.97;;;1.97;;
11447;SDS011;43755;49.736;8.734;2023-09-18T08:42:13;3.00;;;1.63;;
11447;SDS011;43755;49.736;8.734;2023-09-18T08:44:17;5.13;;;2.00;;
11447;SDS011;43755;49.736;8.734;2023-09-18T08:46:21;4.43;;;1.73;;
11447;SDS011;43755;49.736;8.734;2023-09-18T08:48:23;5.47;;;1.90;;
11447;SDS011;43755;49.736;8.734;2023-09-18T08:50:25;5.70;;;2.03;;
11447;SDS011;43755;49.736;8.734;2023-09-18T08:52:26;2.70;;;1.80;;
11447;SDS011;43755;49.736;8.734;2023-09-18T08:54:29;4.53;;;1.93;;
11447;SDS011;43755;49.736;8.734;2023-09-18T08:56:30;4.67;;;1.67;;
11447;SDS011;43755;49.736;8.734;2023-09-18T08:58:33;5.60;;;1.80;;
11447;SDS011;43755;49.736;8.734;2023-09-18T09:00:37;5.97;;;1.77;;
11447;SDS011;43755;49.736;8.734;2023-09-18T09:02:40;4.50;;;1.80;;
11447;SDS011;43755;49.736;8.734;2023-09-18T09:04:40;4.13;;;1.87;;
11447;SDS011;43755;49.736;8.734;2023-09-18T09:06:42;7.07;;;1.83;;
11447;SDS011;43755;49.736;8.734;2023-09-18T09:08:44;3.93;;;1.70;;
11447;SDS011;43755;49.736;8.734;2023-09-18T09:10:45;4.63;;;1.83;;
11447;SDS011;43755;49.736;8.734;2023-09-18T09:12:47;5.10;;;1.70;;
11447;SDS011;43755;49.736;8.734;2023-09-18T09:15:01;2.80;;;1.80;;
11447;SDS011;43755;49.736;8.734;2023-09-18T09:17:04;4.90;;;2.00;;
11447;SDS011;43755;49.736;8.734;2023-09-18T09:19:07;4.00;;;1.67;;
11447;SDS011;43755;49.736;8.734;2023-09-18T09:21:08;2.67;;;1.80;;
11447;SDS011;43755;49.736;8.734;2023-09-18T09:23:10;6.57;;;1.70;;
11447;SDS011;43755;49.736;8.734;2023-09-18T09:25:21;6.00;;;2.20;;
11447;SDS011;43755;49.736;8.734;2023-09-18T09:27:23;5.70;;;2.03;;
11447;SDS011;43755;49.736;8.734;2023-09-18T09:29:24;2.97;;;1.80;;
11447;SDS011;43755;49.736;8.734;2023-09-18T09:31:26;5.63;;;1.90;;
11447;SDS011;43755;49.736;8.734;2023-09-18T09:33:29;3.97;;;1.83;;
11447;SDS011;43755;49.736;8.734;2023-09-18T09:35:32;5.70;;;1.70;;
11447;SDS011;43755;49.736;8.734;2023-09-18T09:37:35;5.10;;;1.80;;
11447;SDS011;43755;49.736;8.734;2023-09-18T09:39:46;5.23;;;2.00;;
11447;SDS011;43755;49.736;8.734;2023-09-18T09:41:50;3.60;;;1.67;;
11447;SDS011;43755;49.736;8.734;2023-09-18T09:43:52;3.20;;;1.70;;
11447;SDS011;43755;49.736;8.734;2023-09-18T09:45:56;4.30;;;2.07;;
11447;SDS011;43755;49.736;8.734;2023-09-18T09:47:59;5.93;;;2.03;;
11447;SDS011;43755;49.736;8.734;2023-09-18T09:50:07;3.20;;;1.87;;
11447;SDS011;43755;49.736;8.734;2023-09-18T09:52:14;5.63;;;2.00;;
11447;SDS011;43755;49.736;8.734;2023-09-18T09:54:31;4.37;;;1.90;;
11447;SDS011;43755;49.736;8.734;2023-09-18T09:56:41;6.07;;;1.80;;
11447;SDS011;43755;49.736;8.734;2023-09-18T09:58:43;3.97;;;2.00;;
11447;SDS011;43755;49.736;8.734;2023-09-18T10:00:45;4.97;;;2.07;;
11447;SDS011;43755;49.736;8.734;2023-09-18T10:02:49;4.00;;;1.80;;
11447;SDS011;43755;49.736;8.734;2023-09-18T10:04:50;5.10;;;2.00;;
11447;SDS011;43755;49.736;8.734;2023-09-18T10:06:52;4.30;;;1.93;;
11447;SDS011;43755;49.736;8.734;2023-09-18T10:08:58;4.60;;;1.87;;
11447;SDS011;43755;49.736;8.734;2023-09-18T10:11:01;2.87;;;1.80;;
11447;SDS011;43755;49.736;8.734;2023-09-18T10:13:10;2.37;;;1.60;;
11447;SDS011;43755;49.736;8.734;2023-09-18T10:15:15;4.47;;;1.93;;
11447;SDS011;43755;49.736;8.734;2023-09-18T10:17:18;5.97;;;1.67;;
11447;SDS011;43755;49.736;8.734;2023-09-18T10:19:21;3.20;;;1.63;;
11447;SDS011;43755;49.736;8.734;2023-09-18T10:21:35;2.50;;;1.90;;
11447;SDS011;43755;49.736;8.734;2023-09-18T10:23:46;7.00;;;2.20;;
11447;SDS011;43755;49.736;8.734;2023-09-18T10:26:01;3.63;;;1.80;;
11447;SDS011;43755;49.736;8.734;2023-09-18T10:28:04;3.47;;;1.77;;
11447;SDS011;43755;49.736;8.734;2023-09-18T10:30:07;4.10;;;1.70;;
11447;SDS011;43755;49.736;8.734;2023-09-18T10:32:12;4.00;;;1.80;;
11447;SDS011;43755;49.736;8.734;2023-09-18T10:34:13;4.20;;;2.00;;
11447;SDS011;43755;49.736;8.734;2023-09-18T10:36:16;3.50;;;1.57;;
11447;SDS011;43755;49.736;8.734;2023-09-18T10:38:19;3.77;;;1.50;;
11447;SDS011;43755;49.736;8.734;2023-09-18T10:40:22;3.63;;;1.93;;
11447;SDS011;43755;49.736;8.734;2023-09-18T10:42:27;3.70;;;1.73;;
11447;SDS011;43755;49.736;8.734;2023-09-18T10:44:30;3.93;;;1.50;;
11447;SDS011;43755;49.736;8.734;2023-09-18T10:46:32;4.80;;;1.90;;
11447;SDS011;43755;49.736;8.734;2023-09-18T10:48:33;3.97;;;2.00;;
11447;SDS011;43755;49.736;8.734;2023-09-18T10:50:35;3.63;;;1.63;;
11447;SDS011;43755;49.736;8.734;2023-09-18T10:52:42;3.77;;;1.73;;
11447;SDS011;43755;49.736;8.734;2023-09-18T10:54:43;3.60;;;1.77;;
11447;SDS011;43755;49.736;8.734;2023-09-18T10:56:46;3.43;;;1.60;;
11447;SDS011;43755;49.736;8.734;2023-09-18T10:58:56;2.23;;;1.90;;
11447;SDS011;43755;49.736;8.734;2023-09-18T11:00:59;2.10;;;1.50;;
11447;SDS011;43755;49.736;8.734;2023-09-18T11:03:10;4.20;;;1.90;;
11447;SDS011;43755;49.736;8.734;2023-09-18T11:05:14;2.80;;;1.77;;
11447;SDS011;43755;49.736;8.734;2023-09-18T11:07:26;4.30;;;1.70;;
11447;SDS011;43755;49.736;8.734;2023-09-18T11:09:29;4.17;;;1.77;;
11447;SDS011;43755;49.736;8.734;2023-09-18T11:11:31;2.93;;;1.73;;
11447;SDS011;43755;49.736;8.734;2023-09-18T11:13:35;1.73;;;1.50;;
11447;SDS011;43755;49.736;8.734;2023-09-18T11:15:39;4.60;;;1.80;;
11447;SDS011;43755;49.736;8.734;2023-09-18T11:17:40;5.90;;;1.77;;
11447;SDS011;43755;49.736;8.734;2023-09-18T11:19:42;4.20;;;1.67;;
11447;SDS011;43755;49.736;8.734;2023-09-18T11:21:45;4.47;;;1.83;;
11447;SDS011;43755;49.736;8.734;2023-09-18T11:23:47;2.80;;;1.70;;
11447;SDS011;43755;49.736;8.734;2023-09-18T11:25:59;3.63;;;1.77;;
11447;SDS011;43755;49.736;8.734;2023-09-18T11:28:05;4.03;;;1.70;;
11447;SDS011;43755;49.736;8.734;2023-09-18T11:30:09;2.23;;;1.57;;
11447;SDS011;43755;49.736;8.734;2023-09-18T11:32:14;4.87;;;1.97;;
11447;SDS011;43755;49.736;8.734;2023-09-18T11:34:19;3.70;;;1.63;;
11447;SDS011;43755;49.736;8.734;2023-09-18T11:36:28;2.10;;;1.80;;
11447;SDS011;43755;49.736;8.734;2023-09-18T11:38:32;7.23;;;1.70;;
11447;SDS011;43755;49.736;8.734;2023-09-18T11:40:36;5.00;;;1.80;;
11447;SDS011;43755;49.736;8.734;2023-09-18T11:42:38;3.10;;;1.70;;
11447;SDS011;43755;49.736;8.734;2023-09-18T11:44:42;3.20;;;2.00;;
11447;SDS011;43755;49.736;8.734;2023-09-18T11:46:46;3.43;;;1.60;;
11447;SDS011;43755;49.736;8.734;2023-09-18T11:48:52;4.70;;;1.90;;
11447;SDS011;43755;49.736;8.734;2023-09-18T11:50:56;4.63;;;1.90;;
11447;SDS011;43755;49.736;8.734;2023-09-18T11:52:57;3.57;;;1.80;;
11447;SDS011;43755;49.736;8.734;2023-09-18T11:54:59;2.87;;;1.77;;
11447;SDS011;43755;49.736;8.734;2023-09-18T11:57:04;5.87;;;2.10;;
11447;SDS011;43755;49.736;8.734;2023-09-18T11:59:06;2.50;;;1.77;;
11447;SDS011;43755;49.736;8.734;2023-09-18T12:01:10;3.37;;;1.73;;
11447;SDS011;43755;49.736;8.734;2023-09-18T12:03:16;3.47;;;1.90;;
11447;SDS011;43755;49.736;8.734;2023-09-18T12:05:26;4.07;;;1.70;;
11447;SDS011;43755;49.736;8.734;2023-09-18T12:07:27;6.47;;;2.20;;
11447;SDS011;43755;49.736;8.734;2023-09-18T12:09:29;3.10;;;2.10;;
11447;SDS011;43755;49.736;8.734;2023-09-18T12:11:30;4.43;;;2.20;;
11447;SDS011;43755;49.736;8.734;2023-09-18T12:13:34;3.83;;;2.00;;
11447;SDS011;43755;49.736;8.734;2023-09-18T12:15:36;3.37;;;1.97;;
11447;SDS011;43755;49.736;8.734;2023-09-18T12:17:39;3.60;;;1.90;;
11447;SDS011;43755;49.736;8.734;2023-09-18T12:19:49;2.00;;;1.80;;
11447;SDS011;43755;49.736;8.734;2023-09-18T12:21:52;4.77;;;2.03;;
11447;SDS011;43755;49.736;8.734;2023-09-18T12:23:54;4.23;;;2.17;;